Time;durP1;ratioP1;P1;durP2;ratioP2;P2;SDS_P1;SDS_P2;PMS_P1;PMS_P2;Temp;Humidity;BMP_temperature;BMP_pressure;BME280_temperature;BME280_humidity;BME280_pressure;Samples;Min_cycle;Max_cycle;Signal;HPM_P1;HPM_P2
2024/02/10 00:01:45;;;;;;;7.95;4.25;;;12.80;99.90;;;;;;5036251;28;20133;-72
2024/02/10 00:04:13;;;;;;;10.43;5.18;;;12.70;99.90;;;;;;5035302;28;20021;-73
2024/02/10 00:06:40;;;;;;;7.65;4.47;;;12.70;99.90;;;;;;5035878;28;20143;-72
2024/02/10 00:09:06;;;;;;;8.55;4.70;;;12.60;99.90;;;;;;5038819;28;20017;-73
2024/02/10 00:11:36;;;;;;;10.73;4.90;;;12.60;99.90;;;;;;5038180;28;20022;-71
2024/02/10 00:14:02;;;;;;;11.05;4.00;;;12.60;99.90;;;;;;5039924;28;20021;-72
2024/02/10 00:16:28;;;;;;;8.20;4.72;;;12.60;99.90;;;;;;5036794;28;20051;-73
2024/02/10 00:18:57;;;;;;;12.35;4.75;;;12.60;99.90;;;;;;5034333;28;20013;-72
2024/02/10 00:21:24;;;;;;;11.25;4.88;;;12.60;99.90;;;;;;5033241;28;20474;-72
2024/02/10 00:23:49;;;;;;;8.40;4.93;;;12.60;99.90;;;;;;5036142;28;20033;-72
2024/02/10 00:26:21;;;;;;;9.32;4.90;;;12.60;99.90;;;;;;5037800;28;20037;-72
2024/02/10 00:28:48;;;;;;;8.25;4.75;;;12.60;99.90;;;;;;5037715;28;20026;-72
2024/02/10 00:31:14;;;;;;;8.02;5.15;;;12.70;99.90;;;;;;5033556;28;20025;-72
2024/02/10 00:33:40;;;;;;;9.65;5.28;;;12.60;99.90;;;;;;5038593;28;20024;-72
2024/02/10 00:36:06;;;;;;;6.70;4.97;;;12.70;99.90;;;;;;5040992;28;20037;-72
2024/02/10 00:38:31;;;;;;;14.48;5.00;;;12.70;99.90;;;;;;5038037;28;20078;-73
2024/02/10 00:41:04;;;;;;;7.65;4.80;;;12.70;99.90;;;;;;5036096;28;20025;-72
2024/02/10 00:43:30;;;;;;;5.72;4.18;;;12.70;99.90;;;;;;5038864;28;20532;-72
2024/02/10 00:45:57;;;;;;;6.90;4.88;;;12.70;99.90;;;;;;5035025;28;20025;-72
2024/02/10 00:48:26;;;;;;;9.02;5.50;;;12.70;99.90;;;;;;5039091;28;20099;-72
2024/02/10 00:50:52;;;;;;;7.13;4.50;;;12.60;99.90;;;;;;5035281;28;20084;-72
2024/02/10 00:53:21;;;;;;;13.25;5.18;;;12.70;99.90;;;;;;5036672;28;20100;-72
2024/02/10 00:55:47;;;;;;;6.65;4.40;;;12.70;99.90;;;;;;5037980;28;20023;-72
2024/02/10 00:58:12;;;;;;;6.20;4.53;;;12.60;99.90;;;;;;5042501;28;20036;-72
2024/02/10 01:00:38;;;;;;;6.85;4.40;;;12.60;99.90;;;;;;5037983;28;20584;-72
2024/02/10 01:03:08;;;;;;;9.73;4.53;;;12.60;99.90;;;;;;5044152;28;20041;-73
2024/02/10 01:05:37;;;;;;;7.90;5.45;;;12.60;99.90;;;;;;5037265;28;20033;-72
2024/02/10 01:08:05;;;;;;;8.63;5.18;;;12.60;99.90;;;;;;5043049;28;20083;-73
2024/02/10 01:10:31;;;;;;;8.75;5.05;;;12.60;99.90;;;;;;5040455;28;20021;-73
2024/02/10 01:13:01;;;;;;;11.05;5.07;;;12.60;99.90;;;;;;5039804;28;20021;-72
2024/02/10 01:15:30;;;;;;;7.25;5.05;;;12.60;99.90;;;;;;5036558;28;20107;-72
2024/02/10 01:17:56;;;;;;;8.52;4.28;;;12.60;99.90;;;;;;5039594;28;20017;-72
2024/02/10 01:20:22;;;;;;;7.70;4.88;;;12.60;99.90;;;;;;5040924;28;20033;-73
2024/02/10 01:22:48;;;;;;;10.27;4.53;;;12.60;99.90;;;;;;5040704;28;20029;-72
2024/02/10 01:25:14;;;;;;;8.63;4.43;;;12.70;99.90;;;;;;5039602;28;20374;-72
2024/02/10 01:27:43;;;;;;;7.40;4.60;;;12.70;99.90;;;;;;5041350;28;20095;-72
2024/02/10 01:30:09;;;;;;;6.63;4.10;;;12.70;99.90;;;;;;5037849;28;20485;-72
2024/02/10 01:32:35;;;;;;;8.35;4.47;;;12.70;99.90;;;;;;5041136;28;20477;-73
2024/02/10 01:35:03;;;;;;;6.25;4.50;;;12.70;99.90;;;;;;5041459;28;20079;-73
2024/02/10 01:37:30;;;;;;;7.88;4.72;;;12.70;99.90;;;;;;5041649;28;20046;-72
2024/02/10 01:39:55;;;;;;;7.20;4.97;;;12.70;99.90;;;;;;5034287;28;20060;-73
2024/02/10 01:42:27;;;;;;;8.30;4.55;;;12.60;99.90;;;;;;5037782;28;20542;-72
2024/02/10 01:44:53;;;;;;;6.78;4.47;;;12.60;99.90;;;;;;5042007;28;20029;-73
2024/02/10 01:47:20;;;;;;;6.00;4.15;;;12.60;99.90;;;;;;5042234;28;20037;-72
2024/02/10 01:49:46;;;;;;;6.30;4.72;;;12.60;99.90;;;;;;5037245;28;20512;-73
2024/02/10 01:52:12;;;;;;;8.60;4.20;;;12.60;99.90;;;;;;5036645;28;20045;-73
2024/02/10 01:54:39;;;;;;;7.28;3.90;;;12.60;99.90;;;;;;5036546;28;20029;-72
2024/02/10 01:57:06;;;;;;;7.40;4.65;;;12.60;99.90;;;;;;5038029;28;20037;-72
2024/02/10 01:59:37;;;;;;;5.00;3.85;;;12.40;99.90;;;;;;5038070;28;20024;-73
2024/02/10 02:02:03;;;;;;;5.90;3.50;;;12.40;99.90;;;;;;5040233;28;20044;-73
2024/02/10 02:04:31;;;;;;;6.45;4.00;;;12.40;99.90;;;;;;5039419;28;20025;-72
2024/02/10 02:07:00;;;;;;;8.95;3.80;;;12.40;99.90;;;;;;5039836;28;20083;-73
2024/02/10 02:09:27;;;;;;;4.70;3.22;;;12.30;99.90;;;;;;5042170;28;20061;-72
2024/02/10 02:11:53;;;;;;;8.65;3.83;;;12.40;99.90;;;;;;5042005;28;20032;-73
2024/02/10 02:14:19;;;;;;;8.02;4.03;;;12.30;99.90;;;;;;5039283;28;20025;-72
2024/02/10 02:16:46;;;;;;;7.78;4.20;;;12.30;99.90;;;;;;5036286;28;20033;-72
2024/02/10 02:19:16;;;;;;;7.75;4.05;;;12.40;99.90;;;;;;5028434;28;20067;-73
2024/02/10 02:21:43;;;;;;;6.25;3.75;;;12.30;99.90;;;;;;5034173;28;20025;-72
2024/02/10 02:24:09;;;;;;;6.95;3.95;;;12.30;99.90;;;;;;5036025;28;20437;-72
2024/02/10 02:26:35;;;;;;;6.82;3.90;;;12.30;99.90;;;;;;5035582;28;20079;-72
2024/02/10 02:29:00;;;;;;;8.43;4.30;;;12.20;99.90;;;;;;5035376;28;20014;-72
2024/02/10 02:31:26;;;;;;;6.45;4.00;;;12.30;99.90;;;;;;5035051;28;20041;-72
2024/02/10 02:34:02;;;;;;;5.25;3.72;;;12.20;99.90;;;;;;5041394;28;20483;-72
2024/02/10 02:36:28;;;;;;;10.77;4.63;;;12.20;99.90;;;;;;5039271;28;20040;-72
2024/02/10 02:38:54;;;;;;;10.15;3.70;;;12.20;99.90;;;;;;5037308;28;20028;-73
2024/02/10 02:41:20;;;;;;;5.13;3.65;;;12.10;99.90;;;;;;5037944;28;20029;-72
2024/02/10 02:43:46;;;;;;;6.10;3.75;;;12.10;99.90;;;;;;5034101;28;20033;-73
2024/02/10 02:46:14;;;;;;;7.07;4.63;;;12.10;99.90;;;;;;5034278;28;20449;-73
2024/02/10 02:48:39;;;;;;;5.03;4.03;;;12.10;99.90;;;;;;5038224;28;20075;-73
2024/02/10 02:51:05;;;;;;;5.90;3.92;;;12.10;99.90;;;;;;5034347;28;20049;-72
2024/02/10 02:53:31;;;;;;;6.35;3.40;;;12.00;99.90;;;;;;5039608;28;20009;-72
2024/02/10 02:55:58;;;;;;;7.95;3.92;;;12.10;99.90;;;;;;5035440;28;20140;-72
2024/02/10 02:58:24;;;;;;;5.28;4.00;;;12.00;99.90;;;;;;5034924;28;20024;-72
2024/02/10 03:00:49;;;;;;;9.25;4.10;;;11.90;99.90;;;;;;5036925;28;22637;-73
2024/02/10 03:03:16;;;;;;;7.35;4.63;;;11.90;99.90;;;;;;5036768;28;20045;-72
2024/02/10 03:05:42;;;;;;;8.70;4.32;;;11.90;99.90;;;;;;5040975;28;20068;-73
2024/02/10 03:08:08;;;;;;;8.35;4.30;;;11.90;99.90;;;;;;5040205;28;20029;-72
2024/02/10 03:10:34;;;;;;;7.93;4.88;;;11.90;99.90;;;;;;5035800;28;20021;-72
2024/02/10 03:12:59;;;;;;;5.20;4.70;;;11.80;99.90;;;;;;5036192;28;20032;-72
2024/02/10 03:15:27;;;;;;;8.00;4.28;;;11.80;99.90;;;;;;5038950;28;20104;-73
2024/02/10 03:17:55;;;;;;;8.95;4.25;;;11.80;99.90;;;;;;5038682;28;20035;-73
2024/02/10 03:20:28;;;;;;;6.50;4.50;;;11.80;99.90;;;;;;5038630;28;20056;-72
2024/02/10 03:23:01;;;;;;;5.68;3.70;;;11.80;99.90;;;;;;5038605;28;20021;-72
2024/02/10 03:25:27;;;;;;;7.25;4.13;;;11.70;99.90;;;;;;5030660;28;20030;-73
2024/02/10 03:27:53;;;;;;;6.47;4.00;;;11.70;99.90;;;;;;5029180;28;20018;-72
2024/02/10 03:30:19;;;;;;;7.32;4.55;;;11.70;99.90;;;;;;5032202;28;20025;-72
2024/02/10 03:32:45;;;;;;;6.78;4.18;;;11.70;99.90;;;;;;5031909;28;20079;-72
2024/02/10 03:35:11;;;;;;;9.80;4.40;;;11.70;99.90;;;;;;5031209;28;20052;-73
2024/02/10 03:37:37;;;;;;;7.75;4.30;;;11.70;99.90;;;;;;5032387;28;20437;-73
2024/02/10 03:40:09;;;;;;;8.27;4.60;;;11.70;99.90;;;;;;5032209;28;20018;-73
2024/02/10 03:42:36;;;;;;;6.38;4.45;;;11.80;99.90;;;;;;5031271;28;20025;-73
2024/02/10 03:45:01;;;;;;;6.57;4.07;;;11.80;99.90;;;;;;5032338;28;20049;-73
2024/02/10 03:47:27;;;;;;;6.72;4.22;;;11.80;99.90;;;;;;5031869;28;20111;-72
2024/02/10 03:49:53;;;;;;;6.55;3.88;;;11.80;99.90;;;;;;5031612;28;20076;-73
2024/02/10 03:52:18;;;;;;;6.47;4.03;;;11.90;99.90;;;;;;5031986;28;20124;-72
2024/02/10 03:54:44;;;;;;;8.75;4.50;;;11.90;99.90;;;;;;5031607;28;20025;-73
2024/02/10 03:57:10;;;;;;;6.20;4.15;;;11.90;99.90;;;;;;5028656;28;20045;-73
2024/02/10 03:59:39;;;;;;;9.80;4.93;;;11.90;99.90;;;;;;5014882;28;20026;-73
2024/02/10 04:02:05;;;;;;;7.13;4.57;;;11.90;99.90;;;;;;5027200;28;20037;-72
2024/02/10 04:04:31;;;;;;;8.27;4.35;;;11.90;99.90;;;;;;5032032;28;20413;-73
2024/02/10 04:06:57;;;;;;;6.60;4.10;;;11.90;99.90;;;;;;5031991;28;20108;-73
2024/02/10 04:09:24;;;;;;;8.55;4.70;;;11.80;99.90;;;;;;5031547;28;20071;-73
2024/02/10 04:11:50;;;;;;;7.50;4.18;;;11.80;99.90;;;;;;5029970;28;20098;-73
2024/02/10 04:14:19;;;;;;;8.30;4.47;;;11.80;99.90;;;;;;5029409;28;20542;-73
2024/02/10 04:16:51;;;;;;;6.00;4.20;;;11.80;99.90;;;;;;5031530;28;20029;-72
2024/02/10 04:19:17;;;;;;;10.80;4.53;;;11.80;99.90;;;;;;5031949;28;20021;-73
2024/02/10 04:21:42;;;;;;;4.97;4.40;;;11.80;99.90;;;;;;5031138;28;20353;-73
2024/02/10 04:24:11;;;;;;;7.13;4.72;;;11.90;99.90;;;;;;5031311;28;20033;-73
2024/02/10 04:26:40;;;;;;;5.25;4.07;;;11.80;99.90;;;;;;5030460;28;20025;-73
2024/02/10 04:29:06;;;;;;;5.60;4.18;;;11.80;99.90;;;;;;5030188;28;20040;-73
2024/02/10 04:31:31;;;;;;;7.03;4.60;;;11.80;99.90;;;;;;5031713;28;20030;-73
2024/02/10 04:33:57;;;;;;;6.93;4.55;;;11.70;99.90;;;;;;5024203;28;20030;-72
2024/02/10 04:36:23;;;;;;;5.75;4.65;;;11.80;99.90;;;;;;5031291;28;20061;-72
2024/02/10 04:38:48;;;;;;;9.15;4.88;;;11.80;99.90;;;;;;5035544;28;20458;-73
2024/02/10 04:41:14;;;;;;;9.35;4.75;;;11.80;99.90;;;;;;5035775;28;20378;-73
2024/02/10 04:43:39;;;;;;;9.00;5.13;;;11.70;99.90;;;;;;5035008;28;20033;-73
2024/02/10 04:46:05;;;;;;;7.60;4.70;;;11.80;99.90;;;;;;5034929;28;20466;-73
2024/02/10 04:48:31;;;;;;;12.05;4.88;;;11.80;99.90;;;;;;5035415;28;20573;-73
2024/02/10 04:50:59;;;;;;;11.18;4.45;;;11.80;99.90;;;;;;5034800;28;20033;-72
2024/02/10 04:53:27;;;;;;;7.60;4.38;;;11.80;99.90;;;;;;5034677;28;20017;-73
2024/02/10 04:55:53;;;;;;;7.90;4.32;;;11.70;99.90;;;;;;5035218;28;20036;-73
2024/02/10 04:58:19;;;;;;;9.63;4.70;;;11.80;99.90;;;;;;5034059;28;20030;-73
2024/02/10 05:00:45;;;;;;;7.57;4.50;;;11.70;99.90;;;;;;5034997;28;20036;-73
2024/02/10 05:03:11;;;;;;;8.70;4.85;;;11.70;99.90;;;;;;5032561;28;20382;-73
2024/02/10 05:05:36;;;;;;;8.80;4.75;;;11.70;99.90;;;;;;5033781;28;20017;-73
2024/02/10 05:08:02;;;;;;;7.10;4.13;;;11.70;99.90;;;;;;5034860;28;20051;-72
2024/02/10 05:10:29;;;;;;;7.97;4.40;;;11.70;99.90;;;;;;5034784;28;20057;-73
2024/02/10 05:12:57;;;;;;;6.93;4.47;;;11.60;99.90;;;;;;5033463;28;20440;-73
2024/02/10 05:15:25;;;;;;;8.10;4.47;;;11.70;99.90;;;;;;5034152;28;20021;-72
2024/02/10 05:17:52;;;;;;;8.90;5.13;;;11.60;99.90;;;;;;5034766;28;20033;-72
2024/02/10 05:20:23;;;;;;;7.97;4.65;;;11.70;99.90;;;;;;5034625;28;20025;-72
2024/02/10 05:22:50;;;;;;;8.82;4.68;;;11.60;99.90;;;;;;5031163;28;20429;-73
2024/02/10 05:25:18;;;;;;;9.27;4.00;;;11.70;99.90;;;;;;5033138;28;20032;-73
2024/02/10 05:27:45;;;;;;;7.20;4.32;;;11.60;99.90;;;;;;5034851;28;20025;-72
2024/02/10 05:30:20;;;;;;;9.18;5.18;;;11.60;99.90;;;;;;5034737;28;20028;-73
2024/02/10 05:32:46;;;;;;;7.50;5.20;;;11.60;99.90;;;;;;5034285;28;20470;-72
2024/02/10 05:35:18;;;;;;;6.38;4.60;;;11.70;99.90;;;;;;5034331;28;20554;-73
2024/02/10 05:37:56;;;;;;;5.43;4.45;;;11.60;99.90;;;;;;5034650;28;20556;-72
2024/02/10 05:40:22;;;;;;;10.15;4.40;;;11.60;99.90;;;;;;5034345;28;20475;-72
2024/02/10 05:42:50;;;;;;;6.13;4.28;;;11.50;99.90;;;;;;5033610;28;20032;-72
2024/02/10 05:45:19;;;;;;;7.30;4.38;;;11.50;99.90;;;;;;5034349;28;20025;-72
2024/02/10 05:47:50;;;;;;;6.55;4.40;;;11.50;99.90;;;;;;5033081;28;20060;-72
2024/02/10 05:50:21;;;;;;;10.20;4.70;;;11.50;99.90;;;;;;5033608;28;20017;-72
2024/02/10 05:52:49;;;;;;;7.15;4.38;;;11.60;99.90;;;;;;5033977;28;20022;-72
2024/02/10 05:55:26;;;;;;;11.32;4.68;;;11.50;99.90;;;;;;5034091;28;20029;-72
2024/02/10 05:57:55;;;;;;;6.43;4.15;;;11.60;99.90;;;;;;5034362;28;20033;-72
2024/02/10 06:00:22;;;;;;;7.70;4.50;;;11.60;99.90;;;;;;5034115;28;20364;-72
2024/02/10 06:02:48;;;;;;;8.55;5.38;;;11.60;99.90;;;;;;5033645;28;20056;-72
2024/02/10 06:05:14;;;;;;;8.13;4.85;;;11.60;99.90;;;;;;5033458;28;20479;-72
2024/02/10 06:07:45;;;;;;;7.43;4.82;;;11.60;99.90;;;;;;5034181;28;20044;-72
2024/02/10 06:10:13;;;;;;;8.55;5.05;;;11.60;99.90;;;;;;5033205;28;20026;-73
2024/02/10 06:12:40;;;;;;;7.30;4.68;;;11.60;99.90;;;;;;5034063;28;20036;-72
2024/02/10 06:15:10;;;;;;;7.63;5.20;;;11.60;99.90;;;;;;5033869;28;20018;-72
2024/02/10 06:17:39;;;;;;;8.15;5.13;;;11.70;99.90;;;;;;5033578;28;20072;-72
2024/02/10 06:20:14;;;;;;;9.13;5.22;;;11.60;99.90;;;;;;5033182;28;20021;-72
2024/02/10 06:22:47;;;;;;;7.05;5.05;;;11.60;99.90;;;;;;5030155;28;20025;-73
2024/02/10 06:25:13;;;;;;;9.20;4.57;;;11.70;99.90;;;;;;5029526;28;20045;-72
2024/02/10 06:27:45;;;;;;;7.90;4.50;;;11.60;99.90;;;;;;5033194;28;20018;-73
2024/02/10 06:30:13;;;;;;;7.03;4.40;;;11.60;99.90;;;;;;5033232;28;20021;-72
2024/02/10 06:32:40;;;;;;;7.55;4.55;;;11.60;99.90;;;;;;5033468;28;20552;-72
2024/02/10 06:35:08;;;;;;;9.90;4.97;;;11.70;99.90;;;;;;5033122;28;20028;-72
2024/02/10 06:37:35;;;;;;;4.05;3.63;;;11.70;99.90;;;;;;5033639;28;20042;-72
2024/02/10 06:40:03;;;;;;;11.30;5.10;;;11.70;99.90;;;;;;5032598;28;20017;-72
2024/02/10 06:42:34;;;;;;;10.65;4.88;;;11.70;99.90;;;;;;5033563;28;20088;-72
2024/02/10 06:45:01;;;;;;;8.80;5.28;;;11.80;99.90;;;;;;5026804;28;20023;-72
2024/02/10 06:47:27;;;;;;;8.27;5.28;;;11.70;99.90;;;;;;5018955;28;20029;-72
2024/02/10 06:49:53;;;;;;;9.60;5.18;;;11.70;99.90;;;;;;5018869;28;20021;-72
2024/02/10 06:52:19;;;;;;;7.07;5.22;;;11.70;99.90;;;;;;5033242;28;20477;-72
2024/02/10 06:54:49;;;;;;;7.32;4.60;;;11.60;99.90;;;;;;5030381;28;20025;-72
2024/02/10 06:57:15;;;;;;;7.57;5.07;;;11.60;99.90;;;;;;5033034;28;20044;-73
2024/02/10 06:59:40;;;;;;;11.00;5.60;;;11.60;99.90;;;;;;5033200;28;20104;-72
2024/02/10 07:02:06;;;;;;;7.30;4.55;;;11.70;99.90;;;;;;5032643;28;20037;-73
2024/02/10 07:04:37;;;;;;;7.13;4.82;;;11.60;99.90;;;;;;5032930;28;20455;-72
2024/02/10 07:07:03;;;;;;;5.45;4.53;;;11.60;99.90;;;;;;5032808;28;20036;-72
2024/02/10 07:09:29;;;;;;;6.90;4.57;;;11.50;99.90;;;;;;5033181;28;20211;-72
2024/02/10 07:11:55;;;;;;;11.35;4.95;;;11.50;99.90;;;;;;5032787;28;20482;-72
2024/02/10 07:14:21;;;;;;;7.70;5.10;;;11.50;99.90;;;;;;5032884;28;20022;-72
2024/02/10 07:16:46;;;;;;;8.02;4.88;;;11.50;99.90;;;;;;5031838;28;20033;-73
2024/02/10 07:19:16;;;;;;;8.63;4.72;;;11.50;99.90;;;;;;5032886;28;20052;-72
2024/02/10 07:21:45;;;;;;;12.50;5.68;;;11.50;99.90;;;;;;5032461;28;20032;-72
2024/02/10 07:24:13;;;;;;;9.15;6.00;;;11.50;99.90;;;;;;5032660;28;20040;-72
2024/02/10 07:26:39;;;;;;;9.57;5.00;;;11.50;99.90;;;;;;5032398;28;20079;-72
2024/02/10 07:29:05;;;;;;;10.27;5.35;;;11.50;99.90;;;;;;5032430;28;20582;-72
2024/02/10 07:31:31;;;;;;;9.50;5.47;;;11.50;99.90;;;;;;5024249;28;20029;-72
2024/02/10 07:33:58;;;;;;;7.82;4.53;;;11.50;99.90;;;;;;5030371;28;20017;-72
2024/02/10 07:36:35;;;;;;;8.90;4.75;;;11.50;99.90;;;;;;5022566;28;20472;-72
2024/02/10 07:39:07;;;;;;;9.00;5.15;;;11.50;99.90;;;;;;5029476;28;20424;-72
2024/02/10 07:41:38;;;;;;;11.57;5.47;;;11.50;99.90;;;;;;5031037;28;20031;-72
2024/02/10 07:44:07;;;;;;;11.48;5.88;;;11.40;99.90;;;;;;5032000;28;20021;-72
2024/02/10 07:46:37;;;;;;;8.80;5.22;;;11.40;99.90;;;;;;5031562;28;20036;-73
2024/02/10 07:49:06;;;;;;;7.90;5.35;;;11.40;99.90;;;;;;5032101;28;20028;-73
2024/02/10 07:51:33;;;;;;;6.85;5.28;;;11.40;99.90;;;;;;5023349;28;20039;-72
2024/02/10 07:53:59;;;;;;;8.80;5.40;;;11.40;99.90;;;;;;5020828;28;20021;-72
2024/02/10 07:56:28;;;;;;;13.60;5.43;;;11.40;99.90;;;;;;5013469;28;20084;-72
2024/02/10 07:58:59;;;;;;;9.27;4.55;;;11.40;99.90;;;;;;5019352;28;20024;-72
2024/02/10 08:01:28;;;;;;;8.65;4.95;;;11.40;99.90;;;;;;5024656;28;20037;-72
2024/02/10 08:03:54;;;;;;;8.18;5.53;;;11.50;99.90;;;;;;5029398;28;20029;-72
2024/02/10 08:06:27;;;;;;;6.85;4.90;;;11.50;99.90;;;;;;5031025;28;20109;-72
2024/02/10 08:08:56;;;;;;;6.55;5.57;;;11.60;99.90;;;;;;5026487;28;20032;-73
2024/02/10 08:11:22;;;;;;;12.18;5.43;;;11.60;99.90;;;;;;5031784;28;20405;-72
2024/02/10 08:13:51;;;;;;;5.72;4.60;;;11.60;99.90;;;;;;5027608;28;20089;-73
2024/02/10 08:16:18;;;;;;;8.10;5.15;;;11.70;99.90;;;;;;5030547;28;20029;-73
2024/02/10 08:18:44;;;;;;;11.50;5.05;;;11.70;99.90;;;;;;5031645;28;20045;-74
2024/02/10 08:21:09;;;;;;;8.45;5.10;;;11.70;99.90;;;;;;5031222;28;20513;-78
2024/02/10 08:23:38;;;;;;;11.35;5.85;;;11.70;99.90;;;;;;5031707;28;20022;-78
2024/02/10 08:26:05;;;;;;;7.55;6.10;;;11.70;99.90;;;;;;5028842;28;20018;-78
2024/02/10 08:28:31;;;;;;;7.22;5.60;;;11.80;99.90;;;;;;5026771;28;20440;-79
2024/02/10 08:30:59;;;;;;;6.57;5.32;;;11.80;99.90;;;;;;5031133;28;20481;-78
2024/02/10 08:33:30;;;;;;;9.32;6.47;;;11.80;99.90;;;;;;5030377;28;20030;-77
2024/02/10 08:35:57;;;;;;;6.88;4.85;;;11.80;99.90;;;;;;5024200;28;20083;-77
2024/02/10 08:38:22;;;;;;;5.78;5.05;;;11.80;99.90;;;;;;5019149;28;20040;-79
2024/02/10 08:40:48;;;;;;;8.70;5.65;;;11.80;99.90;;;;;;5016827;28;20034;-77
2024/02/10 08:43:14;;;;;;;10.35;5.80;;;11.80;99.90;;;;;;5018963;28;20471;-78
2024/02/10 08:45:40;;;;;;;11.20;5.28;;;11.80;99.90;;;;;;5028909;28;20026;-76
2024/02/10 08:48:10;;;;;;;10.80;5.38;;;11.90;99.90;;;;;;5031597;28;20045;-77
2024/02/10 08:50:41;;;;;;;8.25;5.43;;;11.90;99.90;;;;;;5029889;28;20028;-78
2024/02/10 08:53:07;;;;;;;11.57;5.72;;;11.90;99.90;;;;;;5031481;28;20025;-77
2024/02/10 08:55:33;;;;;;;9.15;5.90;;;12.00;99.90;;;;;;5031520;28;20033;-77
2024/02/10 08:58:01;;;;;;;8.85;5.45;;;12.00;99.90;;;;;;5031368;28;20478;-77
2024/02/10 09:00:27;;;;;;;9.82;5.10;;;11.90;99.90;;;;;;5022065;28;20085;-76
2024/02/10 09:02:53;;;;;;;11.38;6.47;;;12.00;99.90;;;;;;5031414;28;20040;-77
2024/02/10 09:05:19;;;;;;;11.18;6.53;;;12.10;99.90;;;;;;5027166;28;20022;-77
2024/02/10 09:07:45;;;;;;;8.60;5.70;;;12.10;99.90;;;;;;5030069;28;20038;-75
2024/02/10 09:10:11;;;;;;;10.27;5.65;;;12.10;99.90;;;;;;5031535;28;20517;-77
2024/02/10 09:12:36;;;;;;;10.13;5.57;;;12.20;99.90;;;;;;5029733;28;20052;-78
2024/02/10 09:15:03;;;;;;;8.00;4.78;;;12.20;99.90;;;;;;5025305;28;20117;-78
2024/02/10 09:17:29;;;;;;;9.27;4.55;;;12.20;99.90;;;;;;5027373;28;20112;-77
2024/02/10 09:19:54;;;;;;;9.40;6.13;;;12.20;99.90;;;;;;5033769;28;20124;-76
2024/02/10 09:22:20;;;;;;;7.43;4.90;;;12.30;99.90;;;;;;5031573;28;20022;-76
2024/02/10 09:24:48;;;;;;;10.65;4.63;;;12.30;99.90;;;;;;5032888;28;20463;-77
2024/02/10 09:27:13;;;;;;;7.18;4.28;;;12.30;99.90;;;;;;5034424;28;20017;-75
2024/02/10 09:29:39;;;;;;;7.57;4.63;;;12.30;99.90;;;;;;5034168;28;20546;-77
2024/02/10 09:32:05;;;;;;;6.85;4.85;;;12.40;99.90;;;;;;5034710;28;20026;-77
2024/02/10 09:34:31;;;;;;;7.32;4.55;;;12.50;99.90;;;;;;5034170;28;20018;-76
2024/02/10 09:37:00;;;;;;;12.65;5.72;;;12.50;99.90;;;;;;5034544;28;20065;-76
2024/02/10 09:39:28;;;;;;;7.35;4.90;;;12.50;99.90;;;;;;5032259;28;20033;-78
2024/02/10 09:41:59;;;;;;;7.25;5.32;;;12.50;99.90;;;;;;5033934;28;20052;-77
2024/02/10 09:44:25;;;;;;;8.75;5.00;;;12.50;99.90;;;;;;5034154;28;20044;-78
2024/02/10 09:46:50;;;;;;;11.02;5.38;;;12.60;99.90;;;;;;5028617;28;20030;-80
2024/02/10 09:49:18;;;;;;;14.40;6.38;;;12.70;99.90;;;;;;5031437;28;20561;-79
2024/02/10 09:51:44;;;;;;;8.30;5.07;;;12.60;99.90;;;;;;5033754;28;20030;-77
2024/02/10 09:54:13;;;;;;;6.82;5.22;;;12.70;99.90;;;;;;5032963;28;20010;-77
2024/02/10 09:56:39;;;;;;;6.82;4.97;;;12.70;99.90;;;;;;5033832;28;20037;-76
2024/02/10 09:59:22;;;;;;;10.18;5.28;;;12.70;99.90;;;;;;5023055;28;20071;-77
2024/02/10 10:01:50;;;;;;;5.97;5.15;;;12.80;99.90;;;;;;5031149;28;20056;-79
2024/02/10 10:04:16;;;;;;;10.15;6.03;;;12.90;99.90;;;;;;5033081;28;20048;-77
2024/02/10 10:06:44;;;;;;;8.88;5.32;;;13.00;99.90;;;;;;5032527;28;20013;-78
2024/02/10 10:09:12;;;;;;;10.27;5.07;;;12.90;99.90;;;;;;5034202;28;20037;-76
2024/02/10 10:11:43;;;;;;;6.78;5.03;;;12.80;99.90;;;;;;5033553;28;20021;-77
2024/02/10 10:14:09;;;;;;;8.90;5.07;;;13.00;99.90;;;;;;5032564;28;20536;-77
2024/02/10 10:16:35;;;;;;;7.57;4.95;;;13.00;99.90;;;;;;5033302;28;20064;-76
2024/02/10 10:19:01;;;;;;;9.25;5.30;;;13.10;99.90;;;;;;5034090;28;20112;-77
2024/02/10 10:21:30;;;;;;;10.93;5.30;;;13.10;99.90;;;;;;5033592;28;20029;-79
2024/02/10 10:24:00;;;;;;;9.40;5.85;;;13.10;99.90;;;;;;5005767;28;20033;-75
2024/02/10 10:26:26;;;;;;;9.18;5.90;;;13.20;99.90;;;;;;5017421;28;20206;-76
2024/02/10 10:28:52;;;;;;;11.50;5.82;;;13.30;99.90;;;;;;5025734;28;20104;-77
2024/02/10 10:31:19;;;;;;;10.55;5.65;;;13.30;99.90;;;;;;5035932;28;20044;-79
2024/02/10 10:33:48;;;;;;;8.07;4.93;;;13.40;99.90;;;;;;5036522;28;20382;-76
2024/02/10 10:36:18;;;;;;;8.98;5.63;;;13.30;99.90;;;;;;5036601;28;20041;-73
2024/02/10 10:38:44;;;;;;;9.07;5.75;;;13.30;99.90;;;;;;5038157;28;20216;-76
2024/02/10 10:41:18;;;;;;;8.63;5.32;;;13.30;99.90;;;;;;5038615;28;20017;-78
2024/02/10 10:43:45;;;;;;;9.52;5.35;;;13.30;99.90;;;;;;5039198;28;20032;-77
2024/02/10 10:46:19;;;;;;;10.30;5.47;;;13.40;99.90;;;;;;5034988;28;20111;-76
2024/02/10 10:48:46;;;;;;;7.75;5.05;;;13.50;99.90;;;;;;5038347;28;20069;-77
2024/02/10 10:51:13;;;;;;;5.78;4.90;;;13.50;99.90;;;;;;5038619;28;20092;-77
2024/02/10 10:53:42;;;;;;;6.72;5.18;;;13.50;99.90;;;;;;5034931;28;20032;-77
2024/02/10 10:56:10;;;;;;;5.72;4.22;;;13.60;99.90;;;;;;5034182;28;20027;-77
2024/02/10 10:58:46;;;;;;;9.07;5.03;;;13.70;99.90;;;;;;5039062;28;20025;-77
2024/02/10 11:01:15;;;;;;;7.00;4.90;;;13.80;99.90;;;;;;5039866;28;20033;-74
2024/02/10 11:03:42;;;;;;;6.90;4.82;;;13.80;99.90;;;;;;5037426;28;20033;-77
2024/02/10 11:06:12;;;;;;;8.77;4.80;;;13.80;99.90;;;;;;5038914;28;20024;-76
2024/02/10 11:08:40;;;;;;;10.05;4.82;;;13.70;99.90;;;;;;5036806;28;20026;-76
2024/02/10 11:11:10;;;;;;;9.63;5.90;;;13.80;99.90;;;;;;5037061;28;20040;-76
2024/02/10 11:13:38;;;;;;;9.82;5.28;;;13.80;99.90;;;;;;5039286;28;20033;-75
2024/02/10 11:16:13;;;;;;;8.20;5.70;;;13.80;99.90;;;;;;5034809;28;20064;-76
2024/02/10 11:18:47;;;;;;;8.38;5.57;;;13.80;99.90;;;;;;5039084;28;20033;-74
2024/02/10 11:21:21;;;;;;;6.28;5.32;;;13.80;99.90;;;;;;5037076;28;20688;-76
2024/02/10 11:24:10;;;;;;;7.95;5.35;;;13.80;99.90;;;;;;5037571;28;20099;-76
2024/02/10 11:26:39;;;;;;;6.95;5.60;;;13.80;99.90;;;;;;5035304;28;20470;-72
2024/02/10 11:29:23;;;;;;;7.18;5.32;;;13.90;99.90;;;;;;5037832;28;20155;-73
2024/02/10 11:31:49;;;;;;;7.28;6.00;;;13.90;99.90;;;;;;5037231;28;20033;-74
2024/02/10 11:34:16;;;;;;;7.15;5.82;;;13.80;99.90;;;;;;5040884;28;20017;-72
2024/02/10 11:36:56;;;;;;;8.27;5.38;;;13.90;99.90;;;;;;5034099;28;20029;-72
2024/02/10 11:39:24;;;;;;;8.20;5.25;;;14.00;99.90;;;;;;5037873;28;20468;-71
2024/02/10 11:42:00;;;;;;;9.93;5.47;;;14.00;99.90;;;;;;5035579;28;20025;-70
2024/02/10 11:44:28;;;;;;;11.90;6.57;;;14.10;99.90;;;;;;5032329;28;20094;-71
2024/02/10 11:46:56;;;;;;;10.85;6.47;;;14.10;99.90;;;;;;5035423;28;20021;-70
2024/02/10 11:49:23;;;;;;;9.45;6.18;;;14.10;99.90;;;;;;5030765;28;20465;-70
2024/02/10 11:51:56;;;;;;;11.52;6.13;;;14.00;99.90;;;;;;5033819;28;20025;-70
2024/02/10 11:54:23;;;;;;;9.48;6.72;;;13.90;99.90;;;;;;5032457;28;20041;-72
2024/02/10 11:56:50;;;;;;;10.65;6.50;;;13.80;99.90;;;;;;5037554;28;20130;-71
2024/02/10 11:59:16;;;;;;;11.68;5.72;;;13.90;99.90;;;;;;5035494;28;20021;-71
2024/02/10 12:01:42;;;;;;;7.63;5.25;;;13.80;99.90;;;;;;5034835;28;20123;-71
2024/02/10 12:04:17;;;;;;;10.43;4.85;;;13.70;99.90;;;;;;5031796;28;20096;-80
2024/02/10 12:06:48;;;;;;;6.25;4.00;;;13.80;99.90;;;;;;5031809;28;20073;-70
2024/02/10 12:09:14;;;;;;;5.47;4.50;;;13.80;99.90;;;;;;5035883;28;20470;-71
2024/02/10 12:11:40;;;;;;;5.18;3.30;;;13.80;99.90;;;;;;5035787;28;20021;-71
2024/02/10 12:14:13;;;;;;;5.95;4.47;;;13.80;99.90;;;;;;5039753;28;20037;-71
2024/02/10 12:16:41;;;;;;;6.07;3.58;;;13.80;99.90;;;;;;5036198;28;20097;-71
2024/02/10 12:19:09;;;;;;;6.40;4.18;;;13.90;99.90;;;;;;5034596;28;20038;-73
2024/02/10 12:21:40;;;;;;;5.28;3.78;;;13.90;99.90;;;;;;5036193;28;20118;-70
2024/02/10 12:24:21;;;;;;;7.65;3.80;;;13.90;99.90;;;;;;5028884;28;20610;-72
2024/02/10 12:26:48;;;;;;;6.30;4.05;;;14.00;99.90;;;;;;5034588;28;20024;-72
2024/02/10 12:29:14;;;;;;;5.65;4.35;;;14.00;99.90;;;;;;5032740;28;20627;-70
2024/02/10 12:31:40;;;;;;;5.38;4.28;;;14.00;99.90;;;;;;5028407;28;20044;-72
2024/02/10 12:34:08;;;;;;;7.07;3.83;;;14.00;99.90;;;;;;5033056;28;20024;-72
2024/02/10 12:36:35;;;;;;;7.35;4.90;;;13.90;99.90;;;;;;5030523;28;20052;-73
2024/02/10 12:39:03;;;;;;;6.53;4.20;;;14.00;99.90;;;;;;5033478;28;20045;-72
2024/02/10 12:41:30;;;;;;;7.85;3.78;;;14.00;99.90;;;;;;5038394;28;20101;-72
2024/02/10 12:43:58;;;;;;;5.63;3.85;;;14.00;99.90;;;;;;5033853;28;20126;-70
2024/02/10 12:46:24;;;;;;;6.85;4.10;;;14.10;99.90;;;;;;5038075;28;20113;-71
2024/02/10 12:48:51;;;;;;;6.15;3.33;;;14.10;99.90;;;;;;5037816;28;20440;-71